createdAt,value
2019-03-09T00:00:15.272Z,119.13
2019-03-09T00:02:48.833Z,131.47
2019-03-09T00:05:23.782Z,126.14
2019-03-09T00:07:58.589Z,129.60
2019-03-09T00:10:31.888Z,136.83
2019-03-09T00:13:05.683Z,125.13
2019-03-09T00:15:41.108Z,124.43
2019-03-09T00:18:14.626Z,135.63
2019-03-09T00:20:48.436Z,117.63
2019-03-09T00:23:23.559Z,140.37
2019-03-09T00:25:58.313Z,131.03
2019-03-09T00:28:33.611Z,135.60
2019-03-09T00:31:07.218Z,140.70
2019-03-09T00:33:40.828Z,139.35
2019-03-09T00:36:16.263Z,155.33
2019-03-09T00:38:49.608Z,167.47
2019-03-09T00:41:23.917Z,140.65
2019-03-09T00:43:57.935Z,146.10
2019-03-09T00:46:31.755Z,130.73
2019-03-09T00:49:05.593Z,160.93
2019-03-09T00:51:39.443Z,141.83
2019-03-09T00:54:15.282Z,142.43
2019-03-09T00:56:49.434Z,159.67
2019-03-09T00:59:24.064Z,150.75
2019-03-09T01:02:00.660Z,156.90
2019-03-09T01:04:36.303Z,152.20
2019-03-09T01:07:10.790Z,144.35
2019-03-09T01:09:45.268Z,141.57
2019-03-09T01:12:21.408Z,140.53
2019-03-09T01:14:57.758Z,120.77
2019-03-09T01:17:31.815Z,133.63
2019-03-09T01:20:06.608Z,149.30
2019-03-09T01:22:41.659Z,162.60
2019-03-09T01:25:18.220Z,141.70
2019-03-09T01:27:52.208Z,134.73
2019-03-09T01:30:28.042Z,145.40
2019-03-09T01:33:02.555Z,136.95
2019-03-09T01:35:37.367Z,142.23
2019-03-09T01:38:14.069Z,149.70
2019-03-09T01:40:50.437Z,130.00
2019-03-09T01:43:25.801Z,134.63
2019-03-09T01:46:02.199Z,138.92
2019-03-09T01:48:37.154Z,127.73
2019-03-09T01:51:11.651Z,124.73
2019-03-09T01:53:45.724Z,137.43
2019-03-09T01:56:19.676Z,157.43
2019-03-09T01:58:54.822Z,119.13
2019-03-09T02:01:28.693Z,146.60
2019-03-09T02:04:02.204Z,125.13
2019-03-09T02:06:36.242Z,101.07
2019-03-09T02:09:11.474Z,104.40
2019-03-09T02:11:45.773Z,74.73
2019-03-09T02:14:20.371Z,71.50
2019-03-09T02:16:54.718Z,83.17
2019-03-09T02:19:29.148Z,73.87
2019-03-09T02:22:08.613Z,68.07
2019-03-09T02:24:43.942Z,75.13
2019-03-09T02:27:18.854Z,57.07
2019-03-09T02:29:52.797Z,52.73
2019-03-09T02:32:27.426Z,64.03
2019-03-09T02:35:05.294Z,59.23
2019-03-09T02:37:40.321Z,43.43
2019-03-09T02:40:15.580Z,37.33
2019-03-09T02:42:51.442Z,33.27
2019-03-09T02:45:27.113Z,31.90
2019-03-09T02:48:02.790Z,49.67
2019-03-09T02:50:38.586Z,32.77
2019-03-09T02:53:16.193Z,33.08
2019-03-09T02:55:55.180Z,30.97
2019-03-09T02:58:30.471Z,30.73
2019-03-09T03:01:06.490Z,32.80
2019-03-09T03:03:46.488Z,30.73
2019-03-09T03:06:26.430Z,33.97
2019-03-09T03:09:02.276Z,45.27
2019-03-09T03:11:37.660Z,42.05
2019-03-09T03:14:15.251Z,31.77
2019-03-09T03:16:51.608Z,33.53
2019-03-09T03:19:27.088Z,30.92
2019-03-09T03:22:01.757Z,29.03
2019-03-09T03:24:37.393Z,28.13
2019-03-09T03:27:12.147Z,36.70
2019-03-09T03:29:46.781Z,36.13
2019-03-09T03:32:21.179Z,44.13
2019-03-09T03:34:55.804Z,40.60
2019-03-09T03:37:36.208Z,39.10
2019-03-09T03:40:17.290Z,32.80
2019-03-09T03:42:51.306Z,43.13
2019-03-09T03:45:26.537Z,29.60
2019-03-09T03:48:01.327Z,29.70
2019-03-09T03:50:35.390Z,22.13
2019-03-09T03:53:11.225Z,29.13
2019-03-09T03:55:44.746Z,24.30
2019-03-09T03:58:20.305Z,31.77
2019-03-09T04:00:55.742Z,20.03
2019-03-09T04:03:31.617Z,36.25
2019-03-09T04:06:25.492Z,31.55
2019-03-09T04:08:59.912Z,31.00
2019-03-09T04:11:34.436Z,29.90
2019-03-09T04:14:11.917Z,23.13
2019-03-09T04:16:48.598Z,32.53
2019-03-09T04:19:23.915Z,34.07
2019-03-09T04:21:59.629Z,23.40
2019-03-09T04:24:36.288Z,32.25
2019-03-09T04:27:11.499Z,25.63
2019-03-09T04:29:46.493Z,30.90
2019-03-09T04:32:23.545Z,32.40
2019-03-09T04:35:03.613Z,23.90
2019-03-09T04:37:38.717Z,25.17
2019-03-09T04:40:15.672Z,19.47
2019-03-09T04:42:52.458Z,26.13
2019-03-09T04:45:29.352Z,25.67
2019-03-09T04:48:04.410Z,24.70
2019-03-09T04:50:43.041Z,27.33
2019-03-09T04:53:18.165Z,21.70
2019-03-09T04:55:55.060Z,23.33
2019-03-09T04:58:30.558Z,26.83
2019-03-09T05:01:04.552Z,31.80
2019-03-09T05:03:38.577Z,27.43
2019-03-09T05:06:12.702Z,23.63
2019-03-09T05:09:06.927Z,34.77
2019-03-09T05:11:52.157Z,31.07
2019-03-09T05:14:27.085Z,23.43
2019-03-09T05:17:06.553Z,32.63
2019-03-09T05:19:41.318Z,24.60
2019-03-09T05:22:19.679Z,25.50
2019-03-09T05:24:56.013Z,26.43
2019-03-09T05:27:30.899Z,23.17
2019-03-09T05:30:11.484Z,21.57
2019-03-09T05:32:46.655Z,24.40
2019-03-09T05:35:22.467Z,36.20
2019-03-09T05:37:57.362Z,31.10
2019-03-09T05:40:37.782Z,28.70
2019-03-09T05:43:16.574Z,19.85
2019-03-09T05:45:52.920Z,22.90
2019-03-09T05:48:27.621Z,19.70
2019-03-09T05:51:02.097Z,21.90
2019-03-09T05:53:37.502Z,18.25
2019-03-09T05:56:14.508Z,15.53
2019-03-09T05:58:50.600Z,22.90
2019-03-09T06:01:27.660Z,17.33
2019-03-09T06:04:03.661Z,17.20
2019-03-09T06:06:38.481Z,23.23
2019-03-09T06:09:13.539Z,12.73
2019-03-09T06:11:52.001Z,14.47
2019-03-09T06:14:30.508Z,12.97
2019-03-09T06:17:07.809Z,20.50
2019-03-09T06:19:43.075Z,14.00
2019-03-09T06:22:23.069Z,21.30
2019-03-09T06:24:59.233Z,18.55
2019-03-09T06:27:36.391Z,26.15
2019-03-09T06:30:15.150Z,17.40
2019-03-09T06:33:14.709Z,14.73
2019-03-09T06:35:53.183Z,15.10
2019-03-09T06:38:43.777Z,17.90
2019-03-09T06:41:41.922Z,26.12
2019-03-09T06:44:19.980Z,16.17
2019-03-09T06:46:55.192Z,20.85
2019-03-09T06:49:31.290Z,14.60
2019-03-09T06:52:09.624Z,20.75
2019-03-09T06:54:44.946Z,20.37
2019-03-09T06:57:22.166Z,15.33
2019-03-09T07:00:02.199Z,24.27
2019-03-09T07:02:39.887Z,19.20
2019-03-09T07:05:18.043Z,19.57
2019-03-09T07:07:53.082Z,19.63
2019-03-09T07:10:28.536Z,20.83
2019-03-09T07:13:03.783Z,16.45
2019-03-09T07:15:44.548Z,14.93
2019-03-09T07:18:26.202Z,19.87
2019-03-09T07:21:08.913Z,23.57
2019-03-09T07:23:57.174Z,16.90
2019-03-09T07:26:39.930Z,17.23
2019-03-09T07:29:17.789Z,19.63
2019-03-09T07:31:52.948Z,21.20
2019-03-09T07:34:31.398Z,17.02
2019-03-09T07:37:12.667Z,16.20
2019-03-09T07:39:51.481Z,20.00
2019-03-09T07:42:30.369Z,21.67
2019-03-09T07:45:07.478Z,14.75
2019-03-09T07:47:48.698Z,13.97
2019-03-09T07:50:25.655Z,17.70
2019-03-09T07:53:03.136Z,19.52
2019-03-09T07:55:47.175Z,17.90
2019-03-09T07:58:27.182Z,13.87
2019-03-09T08:01:02.689Z,18.57
2019-03-09T08:03:38.165Z,18.50
2019-03-09T08:06:16.038Z,16.17
2019-03-09T08:09:02.953Z,19.33
2019-03-09T08:11:40.254Z,21.57
2019-03-09T08:14:27.181Z,19.60
2019-03-09T08:17:05.691Z,19.50
2019-03-09T08:19:43.661Z,22.20
2019-03-09T08:22:23.284Z,16.73
2019-03-09T08:25:03.579Z,19.60
2019-03-09T08:27:43.372Z,12.27
2019-03-09T08:30:20.584Z,15.47
2019-03-09T08:32:57.666Z,19.27
2019-03-09T08:35:32.994Z,31.97
2019-03-09T08:38:08.461Z,21.77
2019-03-09T08:40:44.572Z,21.00
2019-03-09T08:43:19.467Z,15.87
2019-03-09T08:45:54.918Z,21.13
2019-03-09T08:48:32.143Z,17.67
2019-03-09T08:51:10.061Z,24.27
2019-03-09T08:53:47.109Z,20.80
2019-03-09T08:56:22.560Z,18.97
2019-03-09T08:58:59.427Z,26.00
2019-03-09T09:01:35.718Z,32.17
2019-03-09T09:04:16.765Z,19.70
2019-03-09T09:06:55.847Z,22.43
2019-03-09T09:09:31.890Z,19.67
2019-03-09T09:12:08.818Z,22.37
2019-03-09T09:14:43.787Z,24.13
2019-03-09T09:17:21.267Z,26.30
2019-03-09T09:19:56.198Z,21.13
2019-03-09T09:22:31.346Z,17.00
2019-03-09T09:25:11.203Z,33.17
2019-03-09T09:27:52.699Z,24.43
2019-03-09T09:30:29.779Z,20.60
2019-03-09T09:33:10.283Z,17.57
2019-03-09T09:35:45.543Z,14.43
2019-03-09T09:38:20.802Z,21.00
2019-03-09T09:41:01.452Z,17.80
2019-03-09T09:43:37.591Z,14.87
2019-03-09T09:46:14.724Z,20.70
2019-03-09T09:48:53.219Z,25.27
2019-03-09T09:51:30.912Z,16.70
2019-03-09T09:54:16.780Z,17.63
2019-03-09T09:57:01.777Z,20.52
2019-03-09T09:59:46.964Z,24.17
2019-03-09T10:02:27.508Z,26.48
2019-03-09T10:05:09.613Z,20.43
2019-03-09T10:07:48.360Z,25.83
2019-03-09T10:10:24.961Z,19.43
2019-03-09T10:13:02.136Z,18.40
2019-03-09T10:15:39.398Z,19.87
2019-03-09T10:18:16.166Z,19.40
2019-03-09T10:20:51.324Z,23.23
2019-03-09T10:23:26.570Z,25.40
2019-03-09T10:26:08.101Z,17.53
2019-03-09T10:28:43.635Z,27.90
2019-03-09T10:31:20.562Z,27.73
2019-03-09T10:33:55.836Z,32.87
2019-03-09T10:36:31.119Z,40.12
2019-03-09T10:39:07.389Z,36.50
2019-03-09T10:41:48.149Z,34.50
2019-03-09T10:44:25.561Z,39.00
2019-03-09T10:47:02.409Z,42.03
2019-03-09T10:50:03.515Z,36.13
2019-03-09T10:52:41.530Z,40.67
2019-03-09T10:55:23.621Z,34.07
2019-03-09T10:58:03.225Z,34.48
2019-03-09T11:00:45.987Z,34.55
2019-03-09T11:03:24.428Z,45.67
2019-03-09T11:05:58.948Z,36.83
2019-03-09T11:08:37.249Z,38.70
2019-03-09T11:11:14.252Z,40.17
2019-03-09T11:13:52.224Z,49.73
2019-03-09T11:16:30.706Z,41.43
2019-03-09T11:19:11.962Z,42.30
2019-03-09T11:21:51.577Z,40.77
2019-03-09T11:24:26.651Z,45.70
2019-03-09T11:27:01.919Z,48.67
2019-03-09T11:29:39.009Z,50.97
2019-03-09T11:32:15.102Z,53.87
2019-03-09T11:34:52.643Z,42.53
2019-03-09T11:37:32.510Z,50.07
2019-03-09T11:40:07.760Z,55.43
2019-03-09T11:42:47.669Z,42.63
2019-03-09T11:45:27.894Z,41.53
2019-03-09T11:48:07.648Z,45.33
2019-03-09T11:50:44.684Z,49.13
2019-03-09T11:53:21.883Z,45.87
2019-03-09T11:56:00.294Z,55.50
2019-03-09T11:58:45.905Z,50.40
2019-03-09T12:01:21.906Z,55.43
2019-03-09T12:03:57.238Z,42.53
2019-03-09T12:06:34.613Z,42.03
2019-03-09T12:09:13.032Z,45.07
2019-03-09T12:14:41.615Z,49.67
2019-03-09T12:17:16.891Z,53.33
2019-03-09T12:19:57.853Z,44.30
2019-03-09T12:22:35.062Z,53.40
2019-03-09T12:25:12.430Z,49.90
2019-03-09T12:28:00.551Z,57.20
2019-03-09T12:30:35.949Z,42.60
2019-03-09T12:33:14.691Z,49.43
2019-03-09T12:35:50.268Z,49.35
2019-03-09T12:38:37.794Z,49.67
2019-03-09T12:41:15.358Z,48.37
2019-03-09T12:43:50.735Z,48.70
2019-03-09T12:46:27.969Z,52.63
2019-03-09T12:49:08.448Z,42.87
2019-03-09T12:51:45.076Z,45.57
2019-03-09T12:54:22.405Z,53.03
2019-03-09T12:56:58.491Z,50.17
2019-03-09T12:59:33.993Z,43.13
2019-03-09T13:02:11.342Z,46.87
2019-03-09T13:04:48.372Z,39.58
2019-03-09T13:07:24.365Z,54.30
2019-03-09T13:10:05.309Z,50.50
2019-03-09T13:12:41.459Z,39.10
2019-03-09T13:15:23.506Z,48.60
2019-03-09T13:20:52.734Z,42.65
2019-03-09T13:23:31.251Z,61.57
2019-03-09T13:26:17.384Z,50.83
2019-03-09T13:28:54.596Z,49.03
2019-03-09T13:34:13.123Z,51.80
2019-03-09T13:39:51.060Z,49.40
2019-03-09T13:42:31.991Z,42.70
2019-03-09T13:45:13.031Z,59.43
2019-03-09T13:47:50.444Z,56.47
2019-03-09T13:50:26.405Z,58.23
2019-03-09T13:53:03.652Z,72.30
2019-03-09T13:55:40.902Z,58.27
2019-03-09T13:58:21.794Z,51.73
2019-03-09T14:01:01.739Z,59.50
2019-03-09T14:03:47.101Z,57.58
2019-03-09T14:06:29.304Z,57.37
2019-03-09T14:12:22.454Z,75.70
2019-03-09T14:14:34.128Z,60.87
2019-03-09T14:17:09.494Z,60.67
2019-03-09T14:19:44.875Z,63.30
2019-03-09T14:22:21.026Z,59.90
2019-03-09T14:25:01.290Z,62.63
2019-03-09T14:27:36.664Z,63.70
2019-03-09T14:30:27.160Z,62.30
2019-03-09T14:33:02.572Z,55.77
2019-03-09T14:35:43.589Z,52.43
2019-03-09T14:41:17.487Z,55.20
2019-03-09T14:43:54.283Z,61.83
2019-03-09T14:46:33.581Z,52.97
2019-03-09T14:49:10.025Z,53.47
2019-03-09T14:51:46.511Z,55.43
2019-03-09T14:54:21.856Z,53.50
2019-03-09T14:57:02.223Z,52.33
2019-03-09T14:59:42.019Z,61.53
2019-03-09T15:02:22.900Z,54.97
2019-03-09T15:04:58.749Z,52.73
2019-03-09T15:07:38.185Z,53.33
2019-03-09T15:10:17.363Z,55.47
2019-03-09T15:12:52.829Z,56.90
2019-03-09T15:15:31.568Z,55.33
2019-03-09T15:18:06.895Z,63.20
2019-03-09T15:23:37.227Z,53.83
2019-03-09T15:26:12.360Z,55.27
2019-03-09T15:28:49.400Z,56.90
2019-03-09T15:31:24.657Z,58.97
2019-03-09T15:34:00.196Z,63.53
2019-03-09T15:36:36.630Z,68.27
2019-03-09T15:39:13.315Z,59.93
2019-03-09T15:41:49.266Z,59.33
2019-03-09T15:44:26.038Z,57.77
2019-03-09T15:47:01.094Z,70.37
2019-03-09T15:49:41.368Z,59.23
2019-03-09T15:52:18.132Z,55.13
2019-03-09T15:54:53.670Z,54.27
2019-03-09T15:57:27.866Z,54.47
2019-03-09T16:00:01.738Z,59.80
2019-03-09T16:02:35.541Z,51.80
2019-03-09T16:05:09.347Z,50.43
2019-03-09T16:07:43.027Z,53.55
2019-03-09T16:10:21.466Z,49.80
2019-03-09T16:12:56.268Z,44.67
2019-03-09T16:15:35.511Z,49.37
2019-03-09T16:18:10.403Z,57.67
2019-03-09T16:20:45.951Z,51.23
2019-03-09T16:23:22.193Z,55.10
2019-03-09T16:25:58.519Z,54.40
2019-03-09T16:28:33.332Z,52.23
2019-03-09T16:31:09.377Z,53.53
2019-03-09T16:33:44.256Z,47.38
2019-03-09T16:36:19.031Z,46.80
2019-03-09T16:38:53.807Z,52.90
2019-03-09T16:41:28.714Z,46.07
2019-03-09T16:44:03.783Z,53.57
2019-03-09T16:46:38.617Z,53.03
2019-03-09T16:49:16.458Z,43.52
2019-03-09T16:51:52.506Z,46.43
2019-03-09T16:54:29.076Z,53.83
2019-03-09T16:57:03.884Z,46.13
2019-03-09T16:59:40.140Z,46.60
2019-03-09T17:02:14.679Z,55.13
2019-03-09T17:04:49.326Z,58.50
2019-03-09T17:07:24.300Z,58.90
2019-03-09T17:09:58.180Z,58.77
2019-03-09T17:12:32.026Z,46.43
2019-03-09T17:15:08.758Z,47.60
2019-03-09T17:17:43.966Z,53.23
2019-03-09T17:20:20.217Z,61.63
2019-03-09T17:22:54.727Z,52.23
2019-03-09T17:25:30.618Z,53.97
2019-03-09T17:28:06.600Z,53.37
2019-03-09T17:30:41.351Z,55.23
2019-03-09T17:33:17.521Z,52.33
2019-03-09T17:35:54.640Z,50.50
2019-03-09T17:38:29.037Z,52.40
2019-03-09T17:41:07.587Z,54.77
2019-03-09T17:43:41.835Z,47.73
2019-03-09T17:46:15.926Z,51.20
2019-03-09T17:48:51.975Z,46.88
2019-03-09T17:51:26.103Z,56.60
2019-03-09T17:53:59.999Z,65.80
2019-03-09T17:56:35.710Z,55.73
2019-03-09T17:59:11.657Z,55.63
2019-03-09T18:01:46.438Z,52.33
2019-03-09T18:04:20.278Z,60.90
2019-03-09T18:06:54.911Z,54.17
2019-03-09T18:09:31.437Z,66.53
2019-03-09T18:12:07.993Z,47.60
2019-03-09T18:14:42.286Z,46.27
2019-03-09T18:17:18.923Z,59.98
2019-03-09T18:19:53.998Z,50.00
2019-03-09T18:22:29.459Z,57.20
2019-03-09T18:25:03.356Z,52.47
2019-03-09T18:27:37.497Z,59.70
2019-03-09T18:30:13.487Z,55.23
2019-03-09T18:32:47.970Z,57.13
2019-03-09T18:35:23.981Z,61.23
2019-03-09T18:38:00.103Z,61.37
2019-03-09T18:40:34.155Z,60.23
2019-03-09T18:43:08.030Z,64.73
2019-03-09T18:45:42.045Z,68.03
2019-03-09T18:48:19.919Z,59.47
2019-03-09T18:50:55.332Z,64.20
2019-03-09T18:53:28.919Z,67.17
2019-03-09T18:56:03.730Z,68.43
2019-03-09T18:58:37.109Z,66.40
2019-03-09T19:01:10.538Z,69.50
2019-03-09T19:03:43.825Z,67.73
2019-03-09T19:06:17.549Z,56.37
2019-03-09T19:08:50.949Z,62.90
2019-03-09T19:11:25.525Z,69.97
2019-03-09T19:13:58.714Z,62.73
2019-03-09T19:16:31.995Z,67.42
2019-03-09T19:19:05.194Z,75.50
2019-03-09T19:21:38.487Z,71.73
2019-03-09T19:24:11.709Z,75.17
2019-03-09T19:26:45.002Z,89.03
2019-03-09T19:29:18.244Z,81.67
2019-03-09T19:31:51.650Z,76.53
2019-03-09T19:34:24.938Z,70.25
2019-03-09T19:36:58.225Z,78.33
2019-03-09T19:39:31.563Z,77.57
2019-03-09T19:42:04.788Z,75.37
2019-03-09T19:44:38.225Z,79.47
2019-03-09T19:47:11.637Z,72.23
2019-03-09T19:49:44.901Z,75.73
2019-03-09T19:52:19.736Z,74.97
2019-03-09T19:54:52.949Z,82.85
2019-03-09T19:57:26.164Z,72.37
2019-03-09T19:59:59.417Z,79.53
2019-03-09T20:02:34.293Z,79.87
2019-03-09T20:05:09.405Z,75.73
2019-03-09T20:07:42.862Z,83.77
2019-03-09T20:10:23.801Z,76.73
2019-03-09T20:12:58.541Z,75.17
2019-03-09T20:15:32.061Z,87.77
2019-03-09T20:18:05.384Z,78.87
2019-03-09T20:20:38.673Z,73.55
2019-03-09T20:23:13.219Z,85.80
2019-03-09T20:25:46.632Z,78.50
2019-03-09T20:28:19.989Z,78.47
2019-03-09T20:30:53.281Z,77.47
2019-03-09T20:33:26.600Z,97.95
2019-03-09T20:35:59.880Z,86.17
2019-03-09T20:38:33.063Z,81.23
2019-03-09T20:41:08.071Z,83.83
2019-03-09T20:43:41.367Z,92.93
2019-03-09T20:46:14.585Z,88.07
2019-03-09T20:48:49.389Z,88.87
2019-03-09T20:51:22.786Z,93.80
2019-03-09T20:53:56.086Z,84.65
2019-03-09T20:56:29.545Z,90.10
2019-03-09T20:59:02.899Z,86.77
2019-03-09T21:04:17.968Z,92.73
2019-03-09T21:06:52.153Z,102.35
2019-03-09T21:09:25.386Z,106.27
2019-03-09T21:11:58.695Z,94.13
2019-03-09T21:14:33.837Z,90.23
2019-03-09T21:17:07.392Z,93.85
2019-03-09T21:19:40.588Z,100.47
2019-03-09T21:22:14.047Z,85.17
2019-03-09T21:24:47.301Z,94.60
2019-03-09T21:27:20.562Z,96.57
2019-03-09T21:29:53.869Z,99.50
2019-03-09T21:32:27.135Z,100.62
2019-03-09T21:35:03.817Z,88.03
2019-03-09T21:37:37.227Z,99.87
2019-03-09T21:40:11.124Z,106.83
2019-03-09T21:42:44.385Z,102.77
2019-03-09T21:45:18.136Z,104.60
2019-03-09T21:47:51.506Z,109.40
2019-03-09T21:50:24.943Z,102.10
2019-03-09T21:52:59.202Z,94.17
2019-03-09T21:55:32.587Z,89.60
2019-03-09T21:58:05.932Z,96.30
2019-03-09T22:00:39.255Z,99.47
2019-03-09T22:03:12.680Z,105.27
2019-03-09T22:05:45.907Z,101.50
2019-03-09T22:08:19.271Z,102.70
2019-03-09T22:10:53.164Z,101.87
2019-03-09T22:13:26.515Z,108.57
2019-03-09T22:15:59.754Z,108.80
2019-03-09T22:18:36.296Z,114.70
2019-03-09T22:21:11.850Z,103.57
2019-03-09T22:23:44.465Z,104.93
2019-03-09T22:26:18.117Z,104.83
2019-03-09T22:28:51.460Z,106.43
2019-03-09T22:31:28.124Z,96.30
2019-03-09T22:34:06.230Z,109.90
2019-03-09T22:36:40.765Z,99.37
2019-03-09T22:39:15.322Z,109.50
2019-03-09T22:41:50.228Z,105.13
2019-03-09T22:44:23.548Z,117.07
2019-03-09T22:46:58.906Z,94.60
2019-03-09T22:49:32.241Z,100.33
2019-03-09T22:52:05.506Z,112.77
2019-03-09T22:54:39.166Z,102.50
2019-03-09T22:57:12.569Z,106.73
2019-03-09T22:59:45.894Z,106.67
2019-03-09T23:02:20.578Z,98.97
2019-03-09T23:04:58.139Z,96.73
2019-03-09T23:07:31.433Z,105.22
2019-03-09T23:10:06.281Z,102.67
2019-03-09T23:12:42.274Z,97.67
2019-03-09T23:15:19.835Z,96.83
2019-03-09T23:17:53.929Z,101.22
2019-03-09T23:20:28.166Z,111.47
2019-03-09T23:23:03.189Z,109.37
2019-03-09T23:25:38.447Z,103.50
2019-03-09T23:28:12.303Z,103.63
2019-03-09T23:30:46.002Z,96.23
2019-03-09T23:33:21.553Z,112.30
2019-03-09T23:35:55.904Z,99.83
2019-03-09T23:38:30.686Z,99.67
2019-03-09T23:41:06.132Z,94.53
2019-03-09T23:43:40.416Z,84.90
2019-03-09T23:46:14.525Z,91.27
2019-03-09T23:48:50.335Z,87.70
2019-03-09T23:51:25.826Z,72.17
2019-03-09T23:54:01.221Z,87.87
2019-03-09T23:56:35.215Z,80.83
2019-03-09T23:59:17.833Z,76.95
